sensor_id;sensor_type;location;lat;lon;timestamp;temperature;humidity
55064;DHT22;40963;52.168;21.296;2022-07-11T00:02:23;11.40;99.90
55064;DHT22;40963;52.168;21.296;2022-07-11T00:04:49;11.40;99.90
55064;DHT22;40963;52.168;21.296;2022-07-11T00:07:15;11.40;99.90
55064;DHT22;40963;52.168;21.296;2022-07-11T00:09:41;11.40;99.90
55064;DHT22;40963;52.168;21.296;2022-07-11T00:12:11;11.40;99.90
55064;DHT22;40963;52.168;21.296;2022-07-11T00:14:37;11.30;99.90
55064;DHT22;40963;52.168;21.296;2022-07-11T00:17:07;11.30;99.90
55064;DHT22;40963;52.168;21.296;2022-07-11T00:19:36;11.30;99.90
55064;DHT22;40963;52.168;21.296;2022-07-11T00:22:03;11.20;99.90
55064;DHT22;40963;52.168;21.296;2022-07-11T00:24:29;11.20;99.90
55064;DHT22;40963;52.168;21.296;2022-07-11T00:26:54;11.20;99.90
55064;DHT22;40963;52.168;21.296;2022-07-11T00:29:20;11.10;99.90
55064;DHT22;40963;52.168;21.296;2022-07-11T00:31:46;11.10;99.90
55064;DHT22;40963;52.168;21.296;2022-07-11T00:34:12;11.10;99.90
55064;DHT22;40963;52.168;21.296;2022-07-11T00:36:40;11.00;99.90
55064;DHT22;40963;52.168;21.296;2022-07-11T00:39:05;11.10;99.90
55064;DHT22;40963;52.168;21.296;2022-07-11T00:41:31;11.00;99.90
55064;DHT22;40963;52.168;21.296;2022-07-11T00:43:59;11.00;99.90
55064;DHT22;40963;52.168;21.296;2022-07-11T00:46:29;10.90;99.90
55064;DHT22;40963;52.168;21.296;2022-07-11T00:49:00;10.90;99.90
55064;DHT22;40963;52.168;21.296;2022-07-11T00:51:28;10.90;99.90
55064;DHT22;40963;52.168;21.296;2022-07-11T00:53:57;10.80;99.90
55064;DHT22;40963;52.168;21.296;2022-07-11T00:56:48;10.80;99.90
55064;DHT22;40963;52.168;21.296;2022-07-11T00:59:15;10.80;99.90
55064;DHT22;40963;52.168;21.296;2022-07-11T01:01:45;10.70;99.90
55064;DHT22;40963;52.168;21.296;2022-07-11T01:04:11;10.70;99.90
55064;DHT22;40963;52.168;21.296;2022-07-11T01:06:37;10.70;99.90
55064;DHT22;40963;52.168;21.296;2022-07-11T01:09:05;10.70;99.90
55064;DHT22;40963;52.168;21.296;2022-07-11T01:11:31;10.60;99.90
55064;DHT22;40963;52.168;21.296;2022-07-11T01:13:56;10.60;99.90
55064;DHT22;40963;52.168;21.296;2022-07-11T01:16:24;10.60;99.90
55064;DHT22;40963;52.168;21.296;2022-07-11T01:18:54;10.60;99.90
55064;DHT22;40963;52.168;21.296;2022-07-11T01:21:27;10.60;99.90
55064;DHT22;40963;52.168;21.296;2022-07-11T01:23:58;10.60;99.90
55064;DHT22;40963;52.168;21.296;2022-07-11T01:26:43;10.50;99.90
55064;DHT22;40963;52.168;21.296;2022-07-11T01:29:24;10.50;99.90
55064;DHT22;40963;52.168;21.296;2022-07-11T01:31:50;10.50;99.90
55064;DHT22;40963;52.168;21.296;2022-07-11T01:34:18;10.50;99.90
55064;DHT22;40963;52.168;21.296;2022-07-11T01:36:44;10.50;99.90
55064;DHT22;40963;52.168;21.296;2022-07-11T01:39:09;10.50;99.90
55064;DHT22;40963;52.168;21.296;2022-07-11T01:41:35;10.40;99.90
55064;DHT22;40963;52.168;21.296;2022-07-11T01:44:01;10.40;99.90
55064;DHT22;40963;52.168;21.296;2022-07-11T01:46:26;10.40;99.90
55064;DHT22;40963;52.168;21.296;2022-07-11T01:48:52;10.40;99.90
55064;DHT22;40963;52.168;21.296;2022-07-11T01:51:18;10.30;99.90
55064;DHT22;40963;52.168;21.296;2022-07-11T01:53:44;10.30;99.90
55064;DHT22;40963;52.168;21.296;2022-07-11T01:56:10;10.30;99.90
55064;DHT22;40963;52.168;21.296;2022-07-11T01:58:38;10.20;99.90
55064;DHT22;40963;52.168;21.296;2022-07-11T02:01:04;10.20;99.90
55064;DHT22;40963;52.168;21.296;2022-07-11T02:03:29;10.30;99.90
55064;DHT22;40963;52.168;21.296;2022-07-11T02:05:55;10.20;99.90
55064;DHT22;40963;52.168;21.296;2022-07-11T02:08:21;10.20;99.90
55064;DHT22;40963;52.168;21.296;2022-07-11T02:10:52;10.20;99.90
55064;DHT22;40963;52.168;21.296;2022-07-11T02:13:19;10.20;99.90
55064;DHT22;40963;52.168;21.296;2022-07-11T02:15:46;10.20;99.90
55064;DHT22;40963;52.168;21.296;2022-07-11T02:18:17;10.20;99.90
55064;DHT22;40963;52.168;21.296;2022-07-11T02:20:44;10.20;99.90
55064;DHT22;40963;52.168;21.296;2022-07-11T02:23:11;10.20;99.90
55064;DHT22;40963;52.168;21.296;2022-07-11T02:25:57;10.10;99.90
55064;DHT22;40963;52.168;21.296;2022-07-11T02:28:23;10.10;99.90
55064;DHT22;40963;52.168;21.296;2022-07-11T02:30:51;10.10;99.90
55064;DHT22;40963;52.168;21.296;2022-07-11T02:33:19;10.10;99.90
55064;DHT22;40963;52.168;21.296;2022-07-11T02:35:50;10.10;99.90
55064;DHT22;40963;52.168;21.296;2022-07-11T02:38:23;10.10;99.90
55064;DHT22;40963;52.168;21.296;2022-07-11T02:40:56;10.10;99.90
55064;DHT22;40963;52.168;21.296;2022-07-11T02:43:32;10.00;99.90
55064;DHT22;40963;52.168;21.296;2022-07-11T02:45:58;10.10;99.90
55064;DHT22;40963;52.168;21.296;2022-07-11T02:48:24;10.10;99.90
55064;DHT22;40963;52.168;21.296;2022-07-11T02:50:57;10.10;99.90
55064;DHT22;40963;52.168;21.296;2022-07-11T02:53:22;10.10;99.90
55064;DHT22;40963;52.168;21.296;2022-07-11T02:55:48;10.10;99.90
55064;DHT22;40963;52.168;21.296;2022-07-11T02:58:26;10.10;99.90
55064;DHT22;40963;52.168;21.296;2022-07-11T03:00:57;10.10;99.90
55064;DHT22;40963;52.168;21.296;2022-07-11T03:03:25;10.20;99.90
55064;DHT22;40963;52.168;21.296;2022-07-11T03:05:51;10.20;99.90
55064;DHT22;40963;52.168;21.296;2022-07-11T03:08:26;10.20;99.90
55064;DHT22;40963;52.168;21.296;2022-07-11T03:10:54;10.20;99.90
55064;DHT22;40963;52.168;21.296;2022-07-11T03:13:20;10.20;99.90
55064;DHT22;40963;52.168;21.296;2022-07-11T03:15:48;10.30;99.90
55064;DHT22;40963;52.168;21.296;2022-07-11T03:18:14;10.30;99.90
55064;DHT22;40963;52.168;21.296;2022-07-11T03:20:39;10.30;99.90
55064;DHT22;40963;52.168;21.296;2022-07-11T03:23:05;10.40;99.90
55064;DHT22;40963;52.168;21.296;2022-07-11T03:25:31;10.40;99.90
55064;DHT22;40963;52.168;21.296;2022-07-11T03:27:57;10.40;99.90
55064;DHT22;40963;52.168;21.296;2022-07-11T03:30:23;10.50;99.90
55064;DHT22;40963;52.168;21.296;2022-07-11T03:32:48;10.50;99.90
55064;DHT22;40963;52.168;21.296;2022-07-11T03:35:14;10.60;99.90
55064;DHT22;40963;52.168;21.296;2022-07-11T03:37:58;10.60;99.90
55064;DHT22;40963;52.168;21.296;2022-07-11T03:40:24;10.60;99.90
55064;DHT22;40963;52.168;21.296;2022-07-11T03:42:49;10.70;99.90
55064;DHT22;40963;52.168;21.296;2022-07-11T03:45:15;10.70;99.90
55064;DHT22;40963;52.168;21.296;2022-07-11T03:47:43;10.70;99.90
55064;DHT22;40963;52.168;21.296;2022-07-11T03:50:09;10.80;99.90
55064;DHT22;40963;52.168;21.296;2022-07-11T03:52:34;10.90;99.90
55064;DHT22;40963;52.168;21.296;2022-07-11T03:55:03;10.90;99.90
55064;DHT22;40963;52.168;21.296;2022-07-11T03:57:29;11.00;99.90
55064;DHT22;40963;52.168;21.296;2022-07-11T03:59:55;11.10;99.90
55064;DHT22;40963;52.168;21.296;2022-07-11T04:02:21;11.20;99.90
55064;DHT22;40963;52.168;21.296;2022-07-11T04:04:46;11.30;99.90
55064;DHT22;40963;52.168;21.296;2022-07-11T04:07:13;11.30;99.90
55064;DHT22;40963;52.168;21.296;2022-07-11T04:09:38;11.50;99.90
55064;DHT22;40963;52.168;21.296;2022-07-11T04:12:04;11.50;99.90
55064;DHT22;40963;52.168;21.296;2022-07-11T04:14:30;11.60;99.90
55064;DHT22;40963;52.168;21.296;2022-07-11T04:16:56;11.70;99.90
55064;DHT22;40963;52.168;21.296;2022-07-11T04:19:21;11.70;99.90
55064;DHT22;40963;52.168;21.296;2022-07-11T04:21:49;11.80;99.90
55064;DHT22;40963;52.168;21.296;2022-07-11T04:24:14;11.80;99.90
55064;DHT22;40963;52.168;21.296;2022-07-11T04:26:40;11.80;99.90
55064;DHT22;40963;52.168;21.296;2022-07-11T04:29:06;11.90;99.90
55064;DHT22;40963;52.168;21.296;2022-07-11T04:31:32;11.90;99.90
55064;DHT22;40963;52.168;21.296;2022-07-11T04:33:58;11.90;99.90
55064;DHT22;40963;52.168;21.296;2022-07-11T04:36:24;12.00;99.90
55064;DHT22;40963;52.168;21.296;2022-07-11T04:38:50;12.00;99.90
55064;DHT22;40963;52.168;21.296;2022-07-11T04:41:15;12.00;99.90
55064;DHT22;40963;52.168;21.296;2022-07-11T04:43:41;12.10;99.90
55064;DHT22;40963;52.168;21.296;2022-07-11T04:46:06;12.10;99.90
55064;DHT22;40963;52.168;21.296;2022-07-11T04:48:32;12.20;99.90
55064;DHT22;40963;52.168;21.296;2022-07-11T04:50:58;12.30;99.90
55064;DHT22;40963;52.168;21.296;2022-07-11T04:53:24;12.20;99.90
55064;DHT22;40963;52.168;21.296;2022-07-11T04:55:49;12.30;99.90
55064;DHT22;40963;52.168;21.296;2022-07-11T04:58:15;12.30;99.90
55064;DHT22;40963;52.168;21.296;2022-07-11T05:00:41;12.40;99.90
55064;DHT22;40963;52.168;21.296;2022-07-11T05:03:07;12.40;99.90
55064;DHT22;40963;52.168;21.296;2022-07-11T05:05:32;12.50;99.90
55064;DHT22;40963;52.168;21.296;2022-07-11T05:07:59;12.50;99.90
55064;DHT22;40963;52.168;21.296;2022-07-11T05:10:24;12.50;99.90
55064;DHT22;40963;52.168;21.296;2022-07-11T05:12:50;12.60;99.90
55064;DHT22;40963;52.168;21.296;2022-07-11T05:15:15;12.60;99.90
55064;DHT22;40963;52.168;21.296;2022-07-11T05:17:41;12.70;99.90
55064;DHT22;40963;52.168;21.296;2022-07-11T05:20:07;12.70;99.90
55064;DHT22;40963;52.168;21.296;2022-07-11T05:22:33;12.80;99.90
55064;DHT22;40963;52.168;21.296;2022-07-11T05:24:59;12.70;99.90
55064;DHT22;40963;52.168;21.296;2022-07-11T05:27:24;12.80;99.90
55064;DHT22;40963;52.168;21.296;2022-07-11T05:29:50;12.80;99.90
55064;DHT22;40963;52.168;21.296;2022-07-11T05:32:16;12.90;99.90
55064;DHT22;40963;52.168;21.296;2022-07-11T05:34:41;12.90;99.90
55064;DHT22;40963;52.168;21.296;2022-07-11T05:37:07;12.90;99.90
55064;DHT22;40963;52.168;21.296;2022-07-11T05:39:33;12.90;99.90
55064;DHT22;40963;52.168;21.296;2022-07-11T05:41:58;12.90;99.90
55064;DHT22;40963;52.168;21.296;2022-07-11T05:44:24;13.00;99.90
55064;DHT22;40963;52.168;21.296;2022-07-11T05:46:50;12.90;99.90
55064;DHT22;40963;52.168;21.296;2022-07-11T05:49:16;13.00;99.90
55064;DHT22;40963;52.168;21.296;2022-07-11T05:51:41;13.00;99.90
55064;DHT22;40963;52.168;21.296;2022-07-11T05:54:07;13.00;99.90
55064;DHT22;40963;52.168;21.296;2022-07-11T05:56:33;13.00;99.90
55064;DHT22;40963;52.168;21.296;2022-07-11T05:58:58;13.00;99.90
55064;DHT22;40963;52.168;21.296;2022-07-11T06:01:24;13.10;99.90
55064;DHT22;40963;52.168;21.296;2022-07-11T06:03:52;13.10;99.90
55064;DHT22;40963;52.168;21.296;2022-07-11T06:06:18;13.10;99.90
55064;DHT22;40963;52.168;21.296;2022-07-11T06:08:44;13.20;99.90
55064;DHT22;40963;52.168;21.296;2022-07-11T06:11:11;13.20;99.90
55064;DHT22;40963;52.168;21.296;2022-07-11T06:13:42;13.20;99.90
55064;DHT22;40963;52.168;21.296;2022-07-11T06:16:08;13.30;99.90
55064;DHT22;40963;52.168;21.296;2022-07-11T06:18:35;13.30;99.90
55064;DHT22;40963;52.168;21.296;2022-07-11T06:21:01;13.30;99.90
55064;DHT22;40963;52.168;21.296;2022-07-11T06:23:27;13.40;99.90
55064;DHT22;40963;52.168;21.296;2022-07-11T06:25:53;13.50;99.90
55064;DHT22;40963;52.168;21.296;2022-07-11T06:28:19;13.50;99.90
55064;DHT22;40963;52.168;21.296;2022-07-11T06:30:45;13.50;99.90
55064;DHT22;40963;52.168;21.296;2022-07-11T06:33:10;13.50;99.90
55064;DHT22;40963;52.168;21.296;2022-07-11T06:35:36;13.50;99.90
55064;DHT22;40963;52.168;21.296;2022-07-11T06:38:02;13.60;99.90
55064;DHT22;40963;52.168;21.296;2022-07-11T06:40:28;13.60;99.90
55064;DHT22;40963;52.168;21.296;2022-07-11T06:42:54;13.60;99.90
55064;DHT22;40963;52.168;21.296;2022-07-11T06:45:20;13.60;99.90
55064;DHT22;40963;52.168;21.296;2022-07-11T06:47:45;13.60;99.90
55064;DHT22;40963;52.168;21.296;2022-07-11T06:50:11;13.60;99.90
55064;DHT22;40963;52.168;21.296;2022-07-11T06:52:37;13.50;99.90
55064;DHT22;40963;52.168;21.296;2022-07-11T06:55:03;13.50;99.90
55064;DHT22;40963;52.168;21.296;2022-07-11T06:57:29;13.50;99.90
55064;DHT22;40963;52.168;21.296;2022-07-11T06:59:55;13.50;99.90
55064;DHT22;40963;52.168;21.296;2022-07-11T07:02:20;13.40;99.90
55064;DHT22;40963;52.168;21.296;2022-07-11T07:04:48;13.30;99.90
55064;DHT22;40963;52.168;21.296;2022-07-11T07:07:14;13.20;99.90
55064;DHT22;40963;52.168;21.296;2022-07-11T07:09:40;13.20;99.90
55064;DHT22;40963;52.168;21.296;2022-07-11T07:12:06;13.20;99.90
55064;DHT22;40963;52.168;21.296;2022-07-11T07:14:32;13.20;99.90
55064;DHT22;40963;52.168;21.296;2022-07-11T07:16:58;13.20;99.90
55064;DHT22;40963;52.168;21.296;2022-07-11T07:19:23;13.20;99.90
55064;DHT22;40963;52.168;21.296;2022-07-11T07:21:49;13.30;99.90
55064;DHT22;40963;52.168;21.296;2022-07-11T07:24:15;13.40;99.90
55064;DHT22;40963;52.168;21.296;2022-07-11T07:26:40;13.40;99.90
55064;DHT22;40963;52.168;21.296;2022-07-11T07:29:06;13.50;99.90
55064;DHT22;40963;52.168;21.296;2022-07-11T07:31:31;13.60;99.90
55064;DHT22;40963;52.168;21.296;2022-07-11T07:33:57;13.60;99.90
55064;DHT22;40963;52.168;21.296;2022-07-11T07:36:23;13.70;99.90
55064;DHT22;40963;52.168;21.296;2022-07-11T07:38:48;13.70;99.90
55064;DHT22;40963;52.168;21.296;2022-07-11T07:41:15;13.70;99.90
55064;DHT22;40963;52.168;21.296;2022-07-11T07:43:41;13.70;99.90
55064;DHT22;40963;52.168;21.296;2022-07-11T07:46:07;13.60;99.90
55064;DHT22;40963;52.168;21.296;2022-07-11T07:48:37;13.60;99.90
55064;DHT22;40963;52.168;21.296;2022-07-11T07:51:04;13.60;99.90
55064;DHT22;40963;52.168;21.296;2022-07-11T07:53:29;13.60;99.90
55064;DHT22;40963;52.168;21.296;2022-07-11T07:55:55;13.60;99.90
55064;DHT22;40963;52.168;21.296;2022-07-11T07:58:21;13.60;99.90
55064;DHT22;40963;52.168;21.296;2022-07-11T08:00:46;13.60;99.90
55064;DHT22;40963;52.168;21.296;2022-07-11T08:03:30;13.60;99.90
55064;DHT22;40963;52.168;21.296;2022-07-11T08:05:56;13.60;99.90
55064;DHT22;40963;52.168;21.296;2022-07-11T08:08:22;13.60;99.90
55064;DHT22;40963;52.168;21.296;2022-07-11T08:10:48;13.60;99.90
55064;DHT22;40963;52.168;21.296;2022-07-11T08:13:14;13.60;99.90
55064;DHT22;40963;52.168;21.296;2022-07-11T08:15:39;13.60;99.90
55064;DHT22;40963;52.168;21.296;2022-07-11T08:18:05;13.60;99.90
55064;DHT22;40963;52.168;21.296;2022-07-11T08:20:30;13.60;99.90
55064;DHT22;40963;52.168;21.296;2022-07-11T08:23:03;13.60;99.90
55064;DHT22;40963;52.168;21.296;2022-07-11T08:25:31;13.50;99.90
55064;DHT22;40963;52.168;21.296;2022-07-11T08:27:57;13.50;99.90
55064;DHT22;40963;52.168;21.296;2022-07-11T08:30:22;13.50;99.90
55064;DHT22;40963;52.168;21.296;2022-07-11T08:32:48;13.60;99.90
55064;DHT22;40963;52.168;21.296;2022-07-11T08:35:14;13.50;99.90
55064;DHT22;40963;52.168;21.296;2022-07-11T08:37:41;13.50;99.90
55064;DHT22;40963;52.168;21.296;2022-07-11T08:40:08;13.50;99.90
55064;DHT22;40963;52.168;21.296;2022-07-11T08:42:39;13.50;99.90
55064;DHT22;40963;52.168;21.296;2022-07-11T08:45:06;13.50;99.90
55064;DHT22;40963;52.168;21.296;2022-07-11T08:47:32;13.50;99.90
55064;DHT22;40963;52.168;21.296;2022-07-11T08:49:58;13.50;99.90
55064;DHT22;40963;52.168;21.296;2022-07-11T08:52:26;13.50;99.90
55064;DHT22;40963;52.168;21.296;2022-07-11T08:54:51;13.50;99.90
55064;DHT22;40963;52.168;21.296;2022-07-11T08:57:18;13.50;99.90
55064;DHT22;40963;52.168;21.296;2022-07-11T08:59:47;13.50;99.90
55064;DHT22;40963;52.168;21.296;2022-07-11T09:02:12;13.50;99.90
55064;DHT22;40963;52.168;21.296;2022-07-11T09:04:38;13.60;99.90
55064;DHT22;40963;52.168;21.296;2022-07-11T09:07:05;13.60;99.90
55064;DHT22;40963;52.168;21.296;2022-07-11T09:09:31;13.60;99.90
55064;DHT22;40963;52.168;21.296;2022-07-11T09:11:57;13.60;99.90
55064;DHT22;40963;52.168;21.296;2022-07-11T09:14:29;13.60;99.90
55064;DHT22;40963;52.168;21.296;2022-07-11T09:17:00;13.60;99.90
55064;DHT22;40963;52.168;21.296;2022-07-11T09:19:31;13.70;99.90
55064;DHT22;40963;52.168;21.296;2022-07-11T09:22:01;13.70;99.90
55064;DHT22;40963;52.168;21.296;2022-07-11T09:25:04;13.60;99.90
55064;DHT22;40963;52.168;21.296;2022-07-11T09:27:48;13.60;99.90
55064;DHT22;40963;52.168;21.296;2022-07-11T09:32:55;13.60;99.90
55064;DHT22;40963;52.168;21.296;2022-07-11T09:35:22;13.70;99.90
55064;DHT22;40963;52.168;21.296;2022-07-11T09:37:48;13.70;99.90
55064;DHT22;40963;52.168;21.296;2022-07-11T09:40:15;13.80;99.90
55064;DHT22;40963;52.168;21.296;2022-07-11T09:42:46;13.80;99.90
55064;DHT22;40963;52.168;21.296;2022-07-11T09:45:12;14.00;99.90
55064;DHT22;40963;52.168;21.296;2022-07-11T09:47:48;14.10;99.90
55064;DHT22;40963;52.168;21.296;2022-07-11T09:50:18;14.10;99.90
55064;DHT22;40963;52.168;21.296;2022-07-11T09:53:13;14.20;99.90
55064;DHT22;40963;52.168;21.296;2022-07-11T09:55:42;14.20;99.90
55064;DHT22;40963;52.168;21.296;2022-07-11T09:58:09;14.30;99.90
55064;DHT22;40963;52.168;21.296;2022-07-11T10:00:37;14.40;99.90
55064;DHT22;40963;52.168;21.296;2022-07-11T10:03:05;14.40;99.90
55064;DHT22;40963;52.168;21.296;2022-07-11T10:05:31;14.50;99.90
55064;DHT22;40963;52.168;21.296;2022-07-11T10:07:58;14.50;99.90
55064;DHT22;40963;52.168;21.296;2022-07-11T10:10:25;14.60;99.90
55064;DHT22;40963;52.168;21.296;2022-07-11T10:12:52;14.70;99.90
55064;DHT22;40963;52.168;21.296;2022-07-11T10:15:31;14.90;99.90
55064;DHT22;40963;52.168;21.296;2022-07-11T10:18:35;15.10;99.90
55064;DHT22;40963;52.168;21.296;2022-07-11T10:21:07;15.20;99.90
55064;DHT22;40963;52.168;21.296;2022-07-11T10:26:21;15.30;99.90
55064;DHT22;40963;52.168;21.296;2022-07-11T10:28:57;15.30;99.90
55064;DHT22;40963;52.168;21.296;2022-07-11T10:31:25;15.30;99.90
55064;DHT22;40963;52.168;21.296;2022-07-11T10:34:03;15.50;99.90
55064;DHT22;40963;52.168;21.296;2022-07-11T10:36:31;15.60;99.90
55064;DHT22;40963;52.168;21.296;2022-07-11T10:39:20;15.70;99.90
55064;DHT22;40963;52.168;21.296;2022-07-11T10:41:53;15.90;99.90
55064;DHT22;40963;52.168;21.296;2022-07-11T10:44:20;16.00;99.90
55064;DHT22;40963;52.168;21.296;2022-07-11T10:46:46;16.00;99.90
55064;DHT22;40963;52.168;21.296;2022-07-11T10:59:59;16.20;99.90
55064;DHT22;40963;52.168;21.296;2022-07-11T11:02:26;16.30;99.90
55064;DHT22;40963;52.168;21.296;2022-07-11T11:04:54;16.50;99.90
55064;DHT22;40963;52.168;21.296;2022-07-11T11:07:40;16.60;99.90
55064;DHT22;40963;52.168;21.296;2022-07-11T11:15:42;16.60;99.70
55064;DHT22;40963;52.168;21.296;2022-07-11T11:23:37;16.50;99.30
55064;DHT22;40963;52.168;21.296;2022-07-11T11:26:19;16.50;99.50
55064;DHT22;40963;52.168;21.296;2022-07-11T11:28:56;16.50;99.50
55064;DHT22;40963;52.168;21.296;2022-07-11T11:31:22;16.50;99.50
55064;DHT22;40963;52.168;21.296;2022-07-11T11:33:48;16.50;99.70
55064;DHT22;40963;52.168;21.296;2022-07-11T11:36:17;16.60;99.50
55064;DHT22;40963;52.168;21.296;2022-07-11T11:38:43;16.80;99.30
55064;DHT22;40963;52.168;21.296;2022-07-11T11:41:10;16.90;98.90
55064;DHT22;40963;52.168;21.296;2022-07-11T11:43:36;17.00;98.20
55064;DHT22;40963;52.168;21.296;2022-07-11T11:46:03;17.00;97.40
55064;DHT22;40963;52.168;21.296;2022-07-11T11:48:36;17.00;96.50
55064;DHT22;40963;52.168;21.296;2022-07-11T11:51:06;16.90;96.00
55064;DHT22;40963;52.168;21.296;2022-07-11T11:53:41;16.90;95.80
55064;DHT22;40963;52.168;21.296;2022-07-11T11:56:14;16.90;96.00
55064;DHT22;40963;52.168;21.296;2022-07-11T11:58:42;16.90;96.00
55064;DHT22;40963;52.168;21.296;2022-07-11T12:01:11;17.00;96.10
55064;DHT22;40963;52.168;21.296;2022-07-11T12:03:48;17.10;96.00
55064;DHT22;40963;52.168;21.296;2022-07-11T12:06:14;17.20;95.80
55064;DHT22;40963;52.168;21.296;2022-07-11T12:08:40;17.40;95.30
55064;DHT22;40963;52.168;21.296;2022-07-11T12:11:06;17.50;95.10
55064;DHT22;40963;52.168;21.296;2022-07-11T12:13:36;17.50;94.30
55064;DHT22;40963;52.168;21.296;2022-07-11T12:16:02;17.50;93.80
55064;DHT22;40963;52.168;21.296;2022-07-11T12:18:47;17.60;93.40
55064;DHT22;40963;52.168;21.296;2022-07-11T12:21:14;17.60;92.70
55064;DHT22;40963;52.168;21.296;2022-07-11T12:23:40;17.60;92.30
55064;DHT22;40963;52.168;21.296;2022-07-11T12:26:06;17.70;92.50
55064;DHT22;40963;52.168;21.296;2022-07-11T12:28:32;17.80;92.30
55064;DHT22;40963;52.168;21.296;2022-07-11T12:30:58;17.90;91.60
55064;DHT22;40963;52.168;21.296;2022-07-11T12:33:24;18.10;91.40
55064;DHT22;40963;52.168;21.296;2022-07-11T12:35:57;18.20;91.00
55064;DHT22;40963;52.168;21.296;2022-07-11T12:38:23;18.20;91.00
55064;DHT22;40963;52.168;21.296;2022-07-11T12:41:03;18.20;90.40
55064;DHT22;40963;52.168;21.296;2022-07-11T12:43:43;18.30;90.10
55064;DHT22;40963;52.168;21.296;2022-07-11T12:46:31;18.20;88.90
55064;DHT22;40963;52.168;21.296;2022-07-11T12:49:00;18.10;89.60
55064;DHT22;40963;52.168;21.296;2022-07-11T12:54:11;18.10;90.60
55064;DHT22;40963;52.168;21.296;2022-07-11T12:56:37;18.10;90.70
55064;DHT22;40963;52.168;21.296;2022-07-11T12:59:04;18.10;90.90
55064;DHT22;40963;52.168;21.296;2022-07-11T13:01:31;18.10;90.60
55064;DHT22;40963;52.168;21.296;2022-07-11T13:03:57;18.10;90.40
55064;DHT22;40963;52.168;21.296;2022-07-11T13:06:24;18.10;90.20
55064;DHT22;40963;52.168;21.296;2022-07-11T13:09:09;18.00;88.50
55064;DHT22;40963;52.168;21.296;2022-07-11T13:11:38;17.80;86.50
55064;DHT22;40963;52.168;21.296;2022-07-11T13:14:04;17.50;86.80
55064;DHT22;40963;52.168;21.296;2022-07-11T13:16:49;17.30;89.10
55064;DHT22;40963;52.168;21.296;2022-07-11T13:19:15;16.80;90.80
55064;DHT22;40963;52.168;21.296;2022-07-11T13:21:41;16.50;92.40
55064;DHT22;40963;52.168;21.296;2022-07-11T13:24:06;16.10;93.80
55064;DHT22;40963;52.168;21.296;2022-07-11T13:26:32;15.70;95.20
55064;DHT22;40963;52.168;21.296;2022-07-11T13:28:58;15.40;96.40
55064;DHT22;40963;52.168;21.296;2022-07-11T13:31:25;15.10;97.90
55064;DHT22;40963;52.168;21.296;2022-07-11T13:33:50;14.90;98.70
55064;DHT22;40963;52.168;21.296;2022-07-11T13:36:16;14.80;99.60
55064;DHT22;40963;52.168;21.296;2022-07-11T13:38:42;14.60;99.90
55064;DHT22;40963;52.168;21.296;2022-07-11T13:41:07;14.50;99.90
55064;DHT22;40963;52.168;21.296;2022-07-11T13:43:34;14.40;99.90
55064;DHT22;40963;52.168;21.296;2022-07-11T13:46:00;14.30;99.90
55064;DHT22;40963;52.168;21.296;2022-07-11T13:48:25;14.30;99.90
55064;DHT22;40963;52.168;21.296;2022-07-11T13:50:51;14.20;99.90
55064;DHT22;40963;52.168;21.296;2022-07-11T13:53:17;14.20;99.90
55064;DHT22;40963;52.168;21.296;2022-07-11T13:55:43;14.10;99.90
55064;DHT22;40963;52.168;21.296;2022-07-11T13:58:09;14.10;99.90
55064;DHT22;40963;52.168;21.296;2022-07-11T14:00:50;14.10;99.90
55064;DHT22;40963;52.168;21.296;2022-07-11T14:03:15;14.10;99.90
55064;DHT22;40963;52.168;21.296;2022-07-11T14:05:41;14.00;99.90
55064;DHT22;40963;52.168;21.296;2022-07-11T14:08:07;14.10;99.90
55064;DHT22;40963;52.168;21.296;2022-07-11T14:10:33;14.00;99.90
55064;DHT22;40963;52.168;21.296;2022-07-11T14:12:59;14.00;99.90
55064;DHT22;40963;52.168;21.296;2022-07-11T14:15:25;14.10;99.90
55064;DHT22;40963;52.168;21.296;2022-07-11T14:17:51;14.10;99.90
55064;DHT22;40963;52.168;21.296;2022-07-11T14:20:16;14.10;99.90
55064;DHT22;40963;52.168;21.296;2022-07-11T14:22:42;14.10;99.90
55064;DHT22;40963;52.168;21.296;2022-07-11T14:25:08;14.20;99.90
55064;DHT22;40963;52.168;21.296;2022-07-11T14:27:35;14.20;99.90
55064;DHT22;40963;52.168;21.296;2022-07-11T14:30:04;14.30;99.90
55064;DHT22;40963;52.168;21.296;2022-07-11T14:32:30;14.50;99.90
55064;DHT22;40963;52.168;21.296;2022-07-11T14:34:56;14.60;99.90
55064;DHT22;40963;52.168;21.296;2022-07-11T14:37:22;14.80;99.90
55064;DHT22;40963;52.168;21.296;2022-07-11T14:39:47;14.90;99.90
55064;DHT22;40963;52.168;21.296;2022-07-11T14:42:13;15.00;99.90
55064;DHT22;40963;52.168;21.296;2022-07-11T14:44:38;15.20;99.90
55064;DHT22;40963;52.168;21.296;2022-07-11T14:47:04;15.30;99.90
55064;DHT22;40963;52.168;21.296;2022-07-11T14:49:30;15.40;99.90
55064;DHT22;40963;52.168;21.296;2022-07-11T14:51:55;15.40;99.90
55064;DHT22;40963;52.168;21.296;2022-07-11T14:54:21;15.60;99.90
55064;DHT22;40963;52.168;21.296;2022-07-11T14:56:47;15.70;99.90
55064;DHT22;40963;52.168;21.296;2022-07-11T14:59:13;15.70;99.90
55064;DHT22;40963;52.168;21.296;2022-07-11T15:01:38;15.80;99.90
55064;DHT22;40963;52.168;21.296;2022-07-11T15:04:04;15.90;99.90
55064;DHT22;40963;52.168;21.296;2022-07-11T15:06:30;15.90;99.90
55064;DHT22;40963;52.168;21.296;2022-07-11T15:09:14;16.00;99.90
55064;DHT22;40963;52.168;21.296;2022-07-11T15:11:58;16.00;99.90
55064;DHT22;40963;52.168;21.296;2022-07-11T15:14:43;16.10;99.90
55064;DHT22;40963;52.168;21.296;2022-07-11T15:17:08;16.20;99.90
55064;DHT22;40963;52.168;21.296;2022-07-11T15:19:34;16.20;99.90
55064;DHT22;40963;52.168;21.296;2022-07-11T15:21:59;16.30;99.90
55064;DHT22;40963;52.168;21.296;2022-07-11T15:24:25;16.40;99.90
55064;DHT22;40963;52.168;21.296;2022-07-11T15:26:51;16.40;99.90
55064;DHT22;40963;52.168;21.296;2022-07-11T15:29:18;16.40;99.90
55064;DHT22;40963;52.168;21.296;2022-07-11T15:31:44;16.40;99.90
55064;DHT22;40963;52.168;21.296;2022-07-11T15:34:09;16.40;99.90
55064;DHT22;40963;52.168;21.296;2022-07-11T15:36:35;16.40;99.90
55064;DHT22;40963;52.168;21.296;2022-07-11T15:39:00;16.40;99.90
55064;DHT22;40963;52.168;21.296;2022-07-11T15:41:26;16.40;99.90
55064;DHT22;40963;52.168;21.296;2022-07-11T15:43:52;16.40;99.90
55064;DHT22;40963;52.168;21.296;2022-07-11T15:46:18;16.30;99.90
55064;DHT22;40963;52.168;21.296;2022-07-11T15:48:44;16.30;99.90
55064;DHT22;40963;52.168;21.296;2022-07-11T15:51:10;16.20;99.90